Lerna, IL (62440)

8:59 AM CST on December 22, 2014 (GMT -0600)
Charleston Country Club | Change Station
CLOSE
Current Station
Personal Weather Station
Location: Charleston, IL
Elevation: 669 ft
Nearby Weather Stations

Elev 669 ft 39.50 °N, 88.23 °W | Updated 57 minutes ago

Ice Pellets
Ice Pellets
35.5 °F
Feels Like 31 °F
N
5.0
Wind Variable Wind from East
Gusts 9.0 mph

Today
High -- | Low -- °F
--% Chance of Precip.
Yesterday
High -- | Low -- °F
Precip. -- in
7:10 AM 4:33 PM
New Moon, 0% visible
Pressure 29.87 in
Visibility 4.0 miles
Clouds Scattered Clouds 2000 ft
Mostly Cloudy 4900 ft
Overcast 6500 ft
Windchill 31 °F
Dew Point 33 °F
Humidity 91%
Rainfall 0.00 in
Snow Depth Not available.
UV 0 out of 12
Pollen .10 out of 12
Air Quality Not available.
Flu Activity Not available.
METAR KMTO 221453Z AUTO 14010KT 4SM -RA BR SCT020 BKN049 OVC065 02/00 A2985 RMK AO2 SLP113 P0000 60000 T00170000 58011

More Conditions Fewer Conditions

Pressure 29.87 in
Visibility 4.0 miles
Clouds Scattered Clouds 2000 ft
Mostly Cloudy 4900 ft
Overcast 6500 ft
Windchill 31 °F
Dew Point 33 °F
Humidity 91%
Rainfall 0.00 in
Snow Depth Not available.
UV 0 out of 12
Pollen .10 out of 12
Air Quality Not available.
Flu Activity Not available.
METAR KMTO 221453Z AUTO 14010KT 4SM -RA BR SCT020 BKN049 OVC065 02/00 A2985 RMK AO2 SLP113 P0000 60000 T00170000 58011

More Conditions Fewer Conditions

10-Day Weather Forecast

Almanac

Astronomy

Dec. 22, 2014 Rise Set
Actual Time
Civil Twilight
Nautical Twilight
Astronomical Twilight
Moon
Length of Visible Light
Length of Day
Tomorrow will be .
, % of the Moon is Illuminated

Today's Extremes

State Highs State Lows

Community

WunderPhotos

Upload Photos

1,779,608 photos uploaded!

WunderBlogs® & News

Nearby

Air Quality

  Air Quality AQ Index Pollutant
Not available.

Snow Depth

Station Depth Elevation

Earthquake Activity

City Distance Mag. Time & Date
Minimum magnitude displayed is 2.5.

Coastal Water Temperatures

Place Temperature

Nearby Weather Stations